sensor_id;sensor_type;location;lat;lon;timestamp;P1;durP1;ratioP1;P2;durP2;ratioP2
71423;SDS011;59240;51.370;-0.486;2022-07-05T00:01:12;3.80;;;1.30;;
71423;SDS011;59240;51.370;-0.486;2022-07-05T00:03:39;4.57;;;1.42;;
71423;SDS011;59240;51.370;-0.486;2022-07-05T00:06:06;2.72;;;1.60;;
71423;SDS011;59240;51.370;-0.486;2022-07-05T00:08:32;2.70;;;1.20;;
71423;SDS011;59240;51.370;-0.486;2022-07-05T00:10:59;1.75;;;1.30;;
71423;SDS011;59240;51.370;-0.486;2022-07-05T00:13:26;1.48;;;1.20;;
71423;SDS011;59240;51.370;-0.486;2022-07-05T00:15:52;3.28;;;1.35;;
71423;SDS011;59240;51.370;-0.486;2022-07-05T00:18:19;2.22;;;1.42;;
71423;SDS011;59240;51.370;-0.486;2022-07-05T00:20:46;3.40;;;1.40;;
71423;SDS011;59240;51.370;-0.486;2022-07-05T00:23:13;2.47;;;1.52;;
71423;SDS011;59240;51.370;-0.486;2022-07-05T00:25:39;2.80;;;1.60;;
71423;SDS011;59240;51.370;-0.486;2022-07-05T00:28:06;1.55;;;1.23;;
71423;SDS011;59240;51.370;-0.486;2022-07-05T00:30:33;2.53;;;1.42;;
71423;SDS011;59240;51.370;-0.486;2022-07-05T00:32:59;2.28;;;1.45;;
71423;SDS011;59240;51.370;-0.486;2022-07-05T00:35:26;2.75;;;1.17;;
71423;SDS011;59240;51.370;-0.486;2022-07-05T00:37:53;2.55;;;1.15;;
71423;SDS011;59240;51.370;-0.486;2022-07-05T00:40:19;1.50;;;1.23;;
71423;SDS011;59240;51.370;-0.486;2022-07-05T00:42:46;1.98;;;1.48;;
71423;SDS011;59240;51.370;-0.486;2022-07-05T00:45:12;2.55;;;1.40;;
71423;SDS011;59240;51.370;-0.486;2022-07-05T00:47:39;1.98;;;1.42;;
71423;SDS011;59240;51.370;-0.486;2022-07-05T00:50:06;4.00;;;1.70;;
71423;SDS011;59240;51.370;-0.486;2022-07-05T00:52:33;3.65;;;1.60;;
71423;SDS011;59240;51.370;-0.486;2022-07-05T00:55:00;2.65;;;1.30;;
71423;SDS011;59240;51.370;-0.486;2022-07-05T00:57:26;2.22;;;1.38;;
71423;SDS011;59240;51.370;-0.486;2022-07-05T00:59:53;7.10;;;1.73;;
71423;SDS011;59240;51.370;-0.486;2022-07-05T01:02:20;4.38;;;1.23;;
71423;SDS011;59240;51.370;-0.486;2022-07-05T01:04:49;5.20;;;1.30;;
71423;SDS011;59240;51.370;-0.486;2022-07-05T01:07:20;2.13;;;1.20;;
71423;SDS011;59240;51.370;-0.486;2022-07-05T01:09:48;2.30;;;1.50;;
71423;SDS011;59240;51.370;-0.486;2022-07-05T01:12:16;3.22;;;1.40;;
71423;SDS011;59240;51.370;-0.486;2022-07-05T01:14:43;7.72;;;1.67;;
71423;SDS011;59240;51.370;-0.486;2022-07-05T01:17:12;1.38;;;1.27;;
71423;SDS011;59240;51.370;-0.486;2022-07-05T01:19:39;2.25;;;1.50;;
71423;SDS011;59240;51.370;-0.486;2022-07-05T01:22:10;2.00;;;1.20;;
71423;SDS011;59240;51.370;-0.486;2022-07-05T01:24:43;2.92;;;1.30;;
71423;SDS011;59240;51.370;-0.486;2022-07-05T01:27:11;2.17;;;0.98;;
71423;SDS011;59240;51.370;-0.486;2022-07-05T01:29:38;1.42;;;1.10;;
71423;SDS011;59240;51.370;-0.486;2022-07-05T01:32:05;1.80;;;1.15;;
71423;SDS011;59240;51.370;-0.486;2022-07-05T01:34:32;3.65;;;1.40;;
71423;SDS011;59240;51.370;-0.486;2022-07-05T01:37:03;1.92;;;1.20;;
71423;SDS011;59240;51.370;-0.486;2022-07-05T01:39:30;2.97;;;1.40;;
71423;SDS011;59240;51.370;-0.486;2022-07-05T01:41:57;2.67;;;1.23;;
71423;SDS011;59240;51.370;-0.486;2022-07-05T01:44:23;2.95;;;1.23;;
71423;SDS011;59240;51.370;-0.486;2022-07-05T01:46:51;2.45;;;1.08;;
71423;SDS011;59240;51.370;-0.486;2022-07-05T01:49:21;4.82;;;1.23;;
71423;SDS011;59240;51.370;-0.486;2022-07-05T01:51:54;1.42;;;1.08;;
71423;SDS011;59240;51.370;-0.486;2022-07-05T01:54:23;2.67;;;1.60;;
71423;SDS011;59240;51.370;-0.486;2022-07-05T01:56:50;3.85;;;1.38;;
71423;SDS011;59240;51.370;-0.486;2022-07-05T01:59:17;3.45;;;1.80;;
71423;SDS011;59240;51.370;-0.486;2022-07-05T02:01:44;2.15;;;1.77;;
71423;SDS011;59240;51.370;-0.486;2022-07-05T02:04:11;3.40;;;1.60;;
71423;SDS011;59240;51.370;-0.486;2022-07-05T02:06:38;1.90;;;1.50;;
71423;SDS011;59240;51.370;-0.486;2022-07-05T02:09:05;3.08;;;1.80;;
71423;SDS011;59240;51.370;-0.486;2022-07-05T02:11:33;2.60;;;1.50;;
71423;SDS011;59240;51.370;-0.486;2022-07-05T02:14:01;3.45;;;1.50;;
71423;SDS011;59240;51.370;-0.486;2022-07-05T02:16:28;1.80;;;1.40;;
71423;SDS011;59240;51.370;-0.486;2022-07-05T02:18:55;2.22;;;1.77;;
71423;SDS011;59240;51.370;-0.486;2022-07-05T02:21:22;2.97;;;1.58;;
71423;SDS011;59240;51.370;-0.486;2022-07-05T02:23:49;4.13;;;1.67;;
71423;SDS011;59240;51.370;-0.486;2022-07-05T02:26:16;2.65;;;1.40;;
71423;SDS011;59240;51.370;-0.486;2022-07-05T02:28:42;2.72;;;1.45;;
71423;SDS011;59240;51.370;-0.486;2022-07-05T02:31:09;2.65;;;1.60;;
71423;SDS011;59240;51.370;-0.486;2022-07-05T02:33:36;1.83;;;1.45;;
71423;SDS011;59240;51.370;-0.486;2022-07-05T02:36:06;4.22;;;1.70;;
71423;SDS011;59240;51.370;-0.486;2022-07-05T02:38:35;2.15;;;1.42;;
71423;SDS011;59240;51.370;-0.486;2022-07-05T02:41:05;2.38;;;1.40;;
71423;SDS011;59240;51.370;-0.486;2022-07-05T02:43:33;2.28;;;1.60;;
71423;SDS011;59240;51.370;-0.486;2022-07-05T02:46:01;3.90;;;1.50;;
71423;SDS011;59240;51.370;-0.486;2022-07-05T02:48:28;2.08;;;1.55;;
71423;SDS011;59240;51.370;-0.486;2022-07-05T02:50:55;4.13;;;1.65;;
71423;SDS011;59240;51.370;-0.486;2022-07-05T02:53:22;2.55;;;1.40;;
71423;SDS011;59240;51.370;-0.486;2022-07-05T02:55:49;1.90;;;1.48;;
71423;SDS011;59240;51.370;-0.486;2022-07-05T02:58:16;4.10;;;1.45;;
71423;SDS011;59240;51.370;-0.486;2022-07-05T03:00:44;2.00;;;1.40;;
71423;SDS011;59240;51.370;-0.486;2022-07-05T03:03:11;2.13;;;1.90;;
71423;SDS011;59240;51.370;-0.486;2022-07-05T03:05:38;2.30;;;1.85;;
71423;SDS011;59240;51.370;-0.486;2022-07-05T03:08:04;4.93;;;1.70;;
71423;SDS011;59240;51.370;-0.486;2022-07-05T03:10:33;3.80;;;1.98;;
71423;SDS011;59240;51.370;-0.486;2022-07-05T03:13:00;3.75;;;1.90;;
71423;SDS011;59240;51.370;-0.486;2022-07-05T03:15:28;3.50;;;2.03;;
71423;SDS011;59240;51.370;-0.486;2022-07-05T03:17:54;3.08;;;1.85;;
71423;SDS011;59240;51.370;-0.486;2022-07-05T03:20:21;2.47;;;1.83;;
71423;SDS011;59240;51.370;-0.486;2022-07-05T03:22:48;3.15;;;2.03;;
71423;SDS011;59240;51.370;-0.486;2022-07-05T03:25:15;3.90;;;1.50;;
71423;SDS011;59240;51.370;-0.486;2022-07-05T03:27:42;2.80;;;1.70;;
71423;SDS011;59240;51.370;-0.486;2022-07-05T03:30:08;3.15;;;1.90;;
71423;SDS011;59240;51.370;-0.486;2022-07-05T03:32:36;2.22;;;1.58;;
71423;SDS011;59240;51.370;-0.486;2022-07-05T03:35:02;3.00;;;1.77;;
71423;SDS011;59240;51.370;-0.486;2022-07-05T03:37:29;3.90;;;2.25;;
71423;SDS011;59240;51.370;-0.486;2022-07-05T03:39:56;4.40;;;1.92;;
71423;SDS011;59240;51.370;-0.486;2022-07-05T03:42:22;9.20;;;2.58;;
71423;SDS011;59240;51.370;-0.486;2022-07-05T03:44:49;4.65;;;2.53;;
71423;SDS011;59240;51.370;-0.486;2022-07-05T03:47:15;4.28;;;2.20;;
71423;SDS011;59240;51.370;-0.486;2022-07-05T03:49:42;4.57;;;2.88;;
71423;SDS011;59240;51.370;-0.486;2022-07-05T03:52:09;6.32;;;2.75;;
71423;SDS011;59240;51.370;-0.486;2022-07-05T03:54:36;5.03;;;2.25;;
71423;SDS011;59240;51.370;-0.486;2022-07-05T03:57:02;3.83;;;2.10;;
71423;SDS011;59240;51.370;-0.486;2022-07-05T03:59:29;5.07;;;2.53;;
71423;SDS011;59240;51.370;-0.486;2022-07-05T04:01:56;5.57;;;2.13;;
71423;SDS011;59240;51.370;-0.486;2022-07-05T04:04:22;6.53;;;2.47;;
71423;SDS011;59240;51.370;-0.486;2022-07-05T04:06:49;6.63;;;2.22;;
71423;SDS011;59240;51.370;-0.486;2022-07-05T04:09:16;3.80;;;2.15;;
71423;SDS011;59240;51.370;-0.486;2022-07-05T04:11:42;3.72;;;2.28;;
71423;SDS011;59240;51.370;-0.486;2022-07-05T04:14:09;4.60;;;2.20;;
71423;SDS011;59240;51.370;-0.486;2022-07-05T04:16:36;2.75;;;1.80;;
71423;SDS011;59240;51.370;-0.486;2022-07-05T04:19:04;4.32;;;2.25;;
71423;SDS011;59240;51.370;-0.486;2022-07-05T04:21:31;4.03;;;1.92;;
71423;SDS011;59240;51.370;-0.486;2022-07-05T04:23:57;3.58;;;1.90;;
71423;SDS011;59240;51.370;-0.486;2022-07-05T04:26:24;5.22;;;2.10;;
71423;SDS011;59240;51.370;-0.486;2022-07-05T04:28:50;2.92;;;1.70;;
71423;SDS011;59240;51.370;-0.486;2022-07-05T04:31:22;1.98;;;1.77;;
71423;SDS011;59240;51.370;-0.486;2022-07-05T04:33:49;9.65;;;2.50;;
71423;SDS011;59240;51.370;-0.486;2022-07-05T04:36:16;3.95;;;2.40;;
71423;SDS011;59240;51.370;-0.486;2022-07-05T04:38:43;4.13;;;2.10;;
71423;SDS011;59240;51.370;-0.486;2022-07-05T04:41:10;5.43;;;2.10;;
71423;SDS011;59240;51.370;-0.486;2022-07-05T04:43:36;2.70;;;2.17;;
71423;SDS011;59240;51.370;-0.486;2022-07-05T04:46:03;5.28;;;2.13;;
71423;SDS011;59240;51.370;-0.486;2022-07-05T04:48:30;2.78;;;2.00;;
71423;SDS011;59240;51.370;-0.486;2022-07-05T04:50:56;4.40;;;1.92;;
71423;SDS011;59240;51.370;-0.486;2022-07-05T04:53:24;3.10;;;1.85;;
71423;SDS011;59240;51.370;-0.486;2022-07-05T04:55:51;4.00;;;2.30;;
71423;SDS011;59240;51.370;-0.486;2022-07-05T04:58:17;3.42;;;1.90;;
71423;SDS011;59240;51.370;-0.486;2022-07-05T05:00:44;7.03;;;1.80;;
71423;SDS011;59240;51.370;-0.486;2022-07-05T05:03:11;5.03;;;1.83;;
71423;SDS011;59240;51.370;-0.486;2022-07-05T05:05:37;2.60;;;1.88;;
71423;SDS011;59240;51.370;-0.486;2022-07-05T05:08:04;2.58;;;1.83;;
71423;SDS011;59240;51.370;-0.486;2022-07-05T05:10:31;3.58;;;1.90;;
71423;SDS011;59240;51.370;-0.486;2022-07-05T05:12:58;4.82;;;2.03;;
71423;SDS011;59240;51.370;-0.486;2022-07-05T05:15:24;2.60;;;1.33;;
71423;SDS011;59240;51.370;-0.486;2022-07-05T05:17:51;2.78;;;1.70;;
71423;SDS011;59240;51.370;-0.486;2022-07-05T05:20:18;4.82;;;1.83;;
71423;SDS011;59240;51.370;-0.486;2022-07-05T05:22:45;2.67;;;1.20;;
71423;SDS011;59240;51.370;-0.486;2022-07-05T05:25:12;5.72;;;1.50;;
71423;SDS011;59240;51.370;-0.486;2022-07-05T05:27:41;3.20;;;1.33;;
71423;SDS011;59240;51.370;-0.486;2022-07-05T05:30:14;2.45;;;1.15;;
71423;SDS011;59240;51.370;-0.486;2022-07-05T05:32:45;3.05;;;1.40;;
71423;SDS011;59240;51.370;-0.486;2022-07-05T05:35:11;2.53;;;1.45;;
71423;SDS011;59240;51.370;-0.486;2022-07-05T05:40:31;3.28;;;1.63;;
71423;SDS011;59240;51.370;-0.486;2022-07-05T05:42:59;2.28;;;1.30;;
71423;SDS011;59240;51.370;-0.486;2022-07-05T05:45:26;3.47;;;1.50;;
71423;SDS011;59240;51.370;-0.486;2022-07-05T05:47:57;3.95;;;1.63;;
71423;SDS011;59240;51.370;-0.486;2022-07-05T05:50:25;2.50;;;1.08;;
71423;SDS011;59240;51.370;-0.486;2022-07-05T05:52:54;1.92;;;1.25;;
71423;SDS011;59240;51.370;-0.486;2022-07-05T05:55:21;1.38;;;1.08;;
71423;SDS011;59240;51.370;-0.486;2022-07-05T05:57:49;1.73;;;1.00;;
71423;SDS011;59240;51.370;-0.486;2022-07-05T06:00:16;6.35;;;1.50;;
71423;SDS011;59240;51.370;-0.486;2022-07-05T06:02:44;3.28;;;0.90;;
71423;SDS011;59240;51.370;-0.486;2022-07-05T06:05:12;5.22;;;1.17;;
71423;SDS011;59240;51.370;-0.486;2022-07-05T06:07:47;3.15;;;1.27;;
71423;SDS011;59240;51.370;-0.486;2022-07-05T06:10:19;4.63;;;0.98;;
71423;SDS011;59240;51.370;-0.486;2022-07-05T06:12:52;1.75;;;0.80;;
71423;SDS011;59240;51.370;-0.486;2022-07-05T06:15:20;4.20;;;0.85;;
71423;SDS011;59240;51.370;-0.486;2022-07-05T06:17:47;1.58;;;1.00;;
71423;SDS011;59240;51.370;-0.486;2022-07-05T06:20:15;2.63;;;0.82;;
71423;SDS011;59240;51.370;-0.486;2022-07-05T06:22:44;1.67;;;0.93;;
71423;SDS011;59240;51.370;-0.486;2022-07-05T06:25:10;2.13;;;0.98;;
71423;SDS011;59240;51.370;-0.486;2022-07-05T06:27:53;1.35;;;0.60;;
71423;SDS011;59240;51.370;-0.486;2022-07-05T06:30:22;1.35;;;1.00;;
71423;SDS011;59240;51.370;-0.486;2022-07-05T06:32:50;3.60;;;0.93;;
71423;SDS011;59240;51.370;-0.486;2022-07-05T06:35:17;2.35;;;0.80;;
71423;SDS011;59240;51.370;-0.486;2022-07-05T06:37:45;2.10;;;0.90;;
71423;SDS011;59240;51.370;-0.486;2022-07-05T06:40:29;3.92;;;0.90;;
71423;SDS011;59240;51.370;-0.486;2022-07-05T06:43:01;1.65;;;0.90;;
71423;SDS011;59240;51.370;-0.486;2022-07-05T06:45:30;3.90;;;0.80;;
71423;SDS011;59240;51.370;-0.486;2022-07-05T06:47:57;3.20;;;1.15;;
71423;SDS011;59240;51.370;-0.486;2022-07-05T06:50:25;4.00;;;0.95;;
71423;SDS011;59240;51.370;-0.486;2022-07-05T06:52:53;2.35;;;0.90;;
71423;SDS011;59240;51.370;-0.486;2022-07-05T06:55:20;1.92;;;0.85;;
71423;SDS011;59240;51.370;-0.486;2022-07-05T06:57:47;1.63;;;0.85;;
71423;SDS011;59240;51.370;-0.486;2022-07-05T07:00:34;1.30;;;0.70;;
71423;SDS011;59240;51.370;-0.486;2022-07-05T07:03:21;2.83;;;0.88;;
71423;SDS011;59240;51.370;-0.486;2022-07-05T07:06:08;1.73;;;1.00;;
71423;SDS011;59240;51.370;-0.486;2022-07-05T07:08:35;3.08;;;0.82;;
71423;SDS011;59240;51.370;-0.486;2022-07-05T07:11:19;1.42;;;0.80;;
71423;SDS011;59240;51.370;-0.486;2022-07-05T07:13:46;2.20;;;0.90;;
71423;SDS011;59240;51.370;-0.486;2022-07-05T07:16:13;1.27;;;0.80;;
71423;SDS011;59240;51.370;-0.486;2022-07-05T07:18:39;2.40;;;0.77;;
71423;SDS011;59240;51.370;-0.486;2022-07-05T07:21:26;4.40;;;1.08;;
71423;SDS011;59240;51.370;-0.486;2022-07-05T07:23:53;2.67;;;1.15;;
71423;SDS011;59240;51.370;-0.486;2022-07-05T07:26:19;2.88;;;1.02;;
71423;SDS011;59240;51.370;-0.486;2022-07-05T07:28:46;2.67;;;1.00;;
71423;SDS011;59240;51.370;-0.486;2022-07-05T07:31:12;2.72;;;1.00;;
71423;SDS011;59240;51.370;-0.486;2022-07-05T07:33:39;5.45;;;1.40;;
71423;SDS011;59240;51.370;-0.486;2022-07-05T07:36:10;5.53;;;1.10;;
71423;SDS011;59240;51.370;-0.486;2022-07-05T07:38:40;3.00;;;1.20;;
71423;SDS011;59240;51.370;-0.486;2022-07-05T07:41:07;2.47;;;0.93;;
71423;SDS011;59240;51.370;-0.486;2022-07-05T07:43:34;2.65;;;0.70;;
71423;SDS011;59240;51.370;-0.486;2022-07-05T07:46:00;1.30;;;0.82;;
71423;SDS011;59240;51.370;-0.486;2022-07-05T07:48:27;4.22;;;1.00;;
71423;SDS011;59240;51.370;-0.486;2022-07-05T07:50:55;3.10;;;1.00;;
71423;SDS011;59240;51.370;-0.486;2022-07-05T07:53:22;1.77;;;0.93;;
71423;SDS011;59240;51.370;-0.486;2022-07-05T07:55:48;4.85;;;1.00;;
71423;SDS011;59240;51.370;-0.486;2022-07-05T07:58:15;1.65;;;0.95;;
71423;SDS011;59240;51.370;-0.486;2022-07-05T08:00:41;2.45;;;0.70;;
71423;SDS011;59240;51.370;-0.486;2022-07-05T08:03:08;3.47;;;1.00;;
71423;SDS011;59240;51.370;-0.486;2022-07-05T08:05:35;2.28;;;0.80;;
71423;SDS011;59240;51.370;-0.486;2022-07-05T08:08:01;4.63;;;0.75;;
71423;SDS011;59240;51.370;-0.486;2022-07-05T08:10:29;1.08;;;0.73;;
71423;SDS011;59240;51.370;-0.486;2022-07-05T08:12:56;1.95;;;0.85;;
71423;SDS011;59240;51.370;-0.486;2022-07-05T08:15:22;2.30;;;0.90;;
71423;SDS011;59240;51.370;-0.486;2022-07-05T08:17:49;2.30;;;0.88;;
71423;SDS011;59240;51.370;-0.486;2022-07-05T08:20:34;2.65;;;1.13;;
71423;SDS011;59240;51.370;-0.486;2022-07-05T08:23:19;3.38;;;1.00;;
71423;SDS011;59240;51.370;-0.486;2022-07-05T08:25:46;3.80;;;1.15;;
71423;SDS011;59240;51.370;-0.486;2022-07-05T08:28:12;3.45;;;0.90;;
71423;SDS011;59240;51.370;-0.486;2022-07-05T08:30:39;2.78;;;1.27;;
71423;SDS011;59240;51.370;-0.486;2022-07-05T08:33:05;3.20;;;1.10;;
71423;SDS011;59240;51.370;-0.486;2022-07-05T08:35:32;5.47;;;1.05;;
71423;SDS011;59240;51.370;-0.486;2022-07-05T08:37:59;4.35;;;1.17;;
71423;SDS011;59240;51.370;-0.486;2022-07-05T08:40:26;3.50;;;1.02;;
71423;SDS011;59240;51.370;-0.486;2022-07-05T08:42:55;2.47;;;1.08;;
71423;SDS011;59240;51.370;-0.486;2022-07-05T08:45:24;3.97;;;1.08;;
71423;SDS011;59240;51.370;-0.486;2022-07-05T08:47:53;2.17;;;0.80;;
71423;SDS011;59240;51.370;-0.486;2022-07-05T08:50:22;4.07;;;1.00;;
71423;SDS011;59240;51.370;-0.486;2022-07-05T08:52:51;5.05;;;1.42;;
71423;SDS011;59240;51.370;-0.486;2022-07-05T08:55:18;2.25;;;0.90;;
71423;SDS011;59240;51.370;-0.486;2022-07-05T08:57:46;2.58;;;1.02;;
71423;SDS011;59240;51.370;-0.486;2022-07-05T09:00:12;2.00;;;1.08;;
71423;SDS011;59240;51.370;-0.486;2022-07-05T09:02:39;3.80;;;1.00;;
71423;SDS011;59240;51.370;-0.486;2022-07-05T09:05:06;7.65;;;1.23;;
71423;SDS011;59240;51.370;-0.486;2022-07-05T09:07:35;3.47;;;1.13;;
71423;SDS011;59240;51.370;-0.486;2022-07-05T09:10:04;3.33;;;1.08;;
71423;SDS011;59240;51.370;-0.486;2022-07-05T09:12:31;3.78;;;1.33;;
71423;SDS011;59240;51.370;-0.486;2022-07-05T09:14:58;1.70;;;1.00;;
71423;SDS011;59240;51.370;-0.486;2022-07-05T09:17:24;3.58;;;1.00;;
71423;SDS011;59240;51.370;-0.486;2022-07-05T09:25:16;2.88;;;1.05;;
71423;SDS011;59240;51.370;-0.486;2022-07-05T09:27:55;3.67;;;1.00;;
71423;SDS011;59240;51.370;-0.486;2022-07-05T09:30:26;4.10;;;1.05;;
71423;SDS011;59240;51.370;-0.486;2022-07-05T09:35:55;2.83;;;0.90;;
71423;SDS011;59240;51.370;-0.486;2022-07-05T09:38:27;2.53;;;0.98;;
71423;SDS011;59240;51.370;-0.486;2022-07-05T09:40:56;2.63;;;1.00;;
71423;SDS011;59240;51.370;-0.486;2022-07-05T09:43:25;2.35;;;0.98;;
71423;SDS011;59240;51.370;-0.486;2022-07-05T09:46:03;5.13;;;1.15;;
71423;SDS011;59240;51.370;-0.486;2022-07-05T09:48:31;4.15;;;1.20;;
71423;SDS011;59240;51.370;-0.486;2022-07-05T09:51:11;3.47;;;1.13;;
71423;SDS011;59240;51.370;-0.486;2022-07-05T09:53:59;3.65;;;0.90;;
71423;SDS011;59240;51.370;-0.486;2022-07-05T09:56:42;3.55;;;0.82;;
71423;SDS011;59240;51.370;-0.486;2022-07-05T09:59:14;2.67;;;1.30;;
71423;SDS011;59240;51.370;-0.486;2022-07-05T10:01:46;2.40;;;0.93;;
71423;SDS011;59240;51.370;-0.486;2022-07-05T10:04:13;3.50;;;1.02;;
71423;SDS011;59240;51.370;-0.486;2022-07-05T10:06:40;3.88;;;1.30;;
71423;SDS011;59240;51.370;-0.486;2022-07-05T10:09:09;8.52;;;1.10;;
71423;SDS011;59240;51.370;-0.486;2022-07-05T10:11:40;3.08;;;1.17;;
71423;SDS011;59240;51.370;-0.486;2022-07-05T10:14:14;5.65;;;1.10;;
71423;SDS011;59240;51.370;-0.486;2022-07-05T10:16:47;3.80;;;1.17;;
71423;SDS011;59240;51.370;-0.486;2022-07-05T10:21:46;4.47;;;1.00;;
71423;SDS011;59240;51.370;-0.486;2022-07-05T10:24:35;2.80;;;0.90;;
71423;SDS011;59240;51.370;-0.486;2022-07-05T10:27:06;1.77;;;1.00;;
71423;SDS011;59240;51.370;-0.486;2022-07-05T10:29:37;3.00;;;1.48;;
71423;SDS011;59240;51.370;-0.486;2022-07-05T10:32:04;2.40;;;1.00;;
71423;SDS011;59240;51.370;-0.486;2022-07-05T10:34:34;2.85;;;0.85;;
71423;SDS011;59240;51.370;-0.486;2022-07-05T10:37:22;3.00;;;1.00;;
71423;SDS011;59240;51.370;-0.486;2022-07-05T10:39:52;5.18;;;1.20;;
71423;SDS011;59240;51.370;-0.486;2022-07-05T10:42:19;7.28;;;1.42;;
71423;SDS011;59240;51.370;-0.486;2022-07-05T10:44:47;3.10;;;1.25;;
71423;SDS011;59240;51.370;-0.486;2022-07-05T10:47:13;2.97;;;1.10;;
71423;SDS011;59240;51.370;-0.486;2022-07-05T10:49:40;3.40;;;1.00;;
71423;SDS011;59240;51.370;-0.486;2022-07-05T10:52:23;2.60;;;1.10;;
71423;SDS011;59240;51.370;-0.486;2022-07-05T10:58:17;2.63;;;1.17;;
71423;SDS011;59240;51.370;-0.486;2022-07-05T11:00:45;2.42;;;0.80;;
71423;SDS011;59240;51.370;-0.486;2022-07-05T11:11:34;3.38;;;0.93;;
71423;SDS011;59240;51.370;-0.486;2022-07-05T11:23:02;2.00;;;1.05;;
71423;SDS011;59240;51.370;-0.486;2022-07-05T11:25:33;3.40;;;0.98;;
71423;SDS011;59240;51.370;-0.486;2022-07-05T11:28:06;2.83;;;1.08;;
71423;SDS011;59240;51.370;-0.486;2022-07-05T11:30:57;3.35;;;1.17;;
71423;SDS011;59240;51.370;-0.486;2022-07-05T11:35:56;1.60;;;0.73;;
71423;SDS011;59240;51.370;-0.486;2022-07-05T11:38:24;3.75;;;1.33;;
71423;SDS011;59240;51.370;-0.486;2022-07-05T11:41:11;2.25;;;1.00;;
71423;SDS011;59240;51.370;-0.486;2022-07-05T11:43:39;1.88;;;0.85;;
71423;SDS011;59240;51.370;-0.486;2022-07-05T11:46:07;1.40;;;0.80;;
71423;SDS011;59240;51.370;-0.486;2022-07-05T11:48:38;4.18;;;0.77;;
71423;SDS011;59240;51.370;-0.486;2022-07-05T11:51:13;1.90;;;0.90;;
71423;SDS011;59240;51.370;-0.486;2022-07-05T11:53:40;1.55;;;1.00;;
71423;SDS011;59240;51.370;-0.486;2022-07-05T11:56:28;1.90;;;1.00;;
71423;SDS011;59240;51.370;-0.486;2022-07-05T11:58:55;2.25;;;0.93;;
71423;SDS011;59240;51.370;-0.486;2022-07-05T12:01:22;2.72;;;0.90;;
71423;SDS011;59240;51.370;-0.486;2022-07-05T12:03:55;3.75;;;1.00;;
71423;SDS011;59240;51.370;-0.486;2022-07-05T12:06:23;2.55;;;0.80;;
71423;SDS011;59240;51.370;-0.486;2022-07-05T12:09:04;3.53;;;1.10;;
71423;SDS011;59240;51.370;-0.486;2022-07-05T12:11:31;1.92;;;0.93;;
71423;SDS011;59240;51.370;-0.486;2022-07-05T12:14:20;1.70;;;1.00;;
71423;SDS011;59240;51.370;-0.486;2022-07-05T12:16:48;1.50;;;1.00;;
71423;SDS011;59240;51.370;-0.486;2022-07-05T12:19:25;2.67;;;0.80;;
71423;SDS011;59240;51.370;-0.486;2022-07-05T12:21:53;4.43;;;1.02;;
71423;SDS011;59240;51.370;-0.486;2022-07-05T12:24:21;1.58;;;0.85;;
71423;SDS011;59240;51.370;-0.486;2022-07-05T12:26:49;3.42;;;0.70;;
71423;SDS011;59240;51.370;-0.486;2022-07-05T12:29:17;5.72;;;1.00;;
71423;SDS011;59240;51.370;-0.486;2022-07-05T12:31:58;2.65;;;0.80;;
71423;SDS011;59240;51.370;-0.486;2022-07-05T12:34:29;2.30;;;1.10;;
71423;SDS011;59240;51.370;-0.486;2022-07-05T12:36:56;1.77;;;0.90;;
71423;SDS011;59240;51.370;-0.486;2022-07-05T12:39:24;2.45;;;0.93;;
71423;SDS011;59240;51.370;-0.486;2022-07-05T12:41:51;1.35;;;0.70;;
71423;SDS011;59240;51.370;-0.486;2022-07-05T12:44:19;3.72;;;0.90;;
71423;SDS011;59240;51.370;-0.486;2022-07-05T12:46:46;2.45;;;0.82;;
71423;SDS011;59240;51.370;-0.486;2022-07-05T12:49:15;4.22;;;0.90;;
71423;SDS011;59240;51.370;-0.486;2022-07-05T12:51:43;2.28;;;0.95;;
71423;SDS011;59240;51.370;-0.486;2022-07-05T12:54:21;1.58;;;0.70;;
71423;SDS011;59240;51.370;-0.486;2022-07-05T12:57:07;2.20;;;0.90;;
71423;SDS011;59240;51.370;-0.486;2022-07-05T12:59:57;5.95;;;0.88;;
71423;SDS011;59240;51.370;-0.486;2022-07-05T13:05:06;2.80;;;0.90;;
71423;SDS011;59240;51.370;-0.486;2022-07-05T13:07:43;1.88;;;0.95;;
71423;SDS011;59240;51.370;-0.486;2022-07-05T13:10:19;5.13;;;0.90;;
71423;SDS011;59240;51.370;-0.486;2022-07-05T13:12:47;4.90;;;1.27;;
71423;SDS011;59240;51.370;-0.486;2022-07-05T13:15:15;1.92;;;0.90;;
71423;SDS011;59240;51.370;-0.486;2022-07-05T13:17:43;1.48;;;0.82;;
71423;SDS011;59240;51.370;-0.486;2022-07-05T13:20:12;3.60;;;1.00;;
71423;SDS011;59240;51.370;-0.486;2022-07-05T13:22:39;1.70;;;0.60;;
71423;SDS011;59240;51.370;-0.486;2022-07-05T13:25:06;4.50;;;0.90;;
71423;SDS011;59240;51.370;-0.486;2022-07-05T13:27:33;3.65;;;1.23;;
71423;SDS011;59240;51.370;-0.486;2022-07-05T13:30:01;2.30;;;0.90;;
71423;SDS011;59240;51.370;-0.486;2022-07-05T13:32:29;2.47;;;0.90;;
71423;SDS011;59240;51.370;-0.486;2022-07-05T13:34:56;1.55;;;0.85;;
71423;SDS011;59240;51.370;-0.486;2022-07-05T13:37:22;2.67;;;0.85;;
71423;SDS011;59240;51.370;-0.486;2022-07-05T13:39:49;3.97;;;0.88;;
71423;SDS011;59240;51.370;-0.486;2022-07-05T13:42:16;1.83;;;0.85;;
71423;SDS011;59240;51.370;-0.486;2022-07-05T13:44:42;2.38;;;0.88;;
71423;SDS011;59240;51.370;-0.486;2022-07-05T13:47:09;1.75;;;0.70;;
71423;SDS011;59240;51.370;-0.486;2022-07-05T13:49:37;2.80;;;0.73;;
71423;SDS011;59240;51.370;-0.486;2022-07-05T13:52:06;2.20;;;0.90;;
71423;SDS011;59240;51.370;-0.486;2022-07-05T13:54:33;2.03;;;0.90;;
71423;SDS011;59240;51.370;-0.486;2022-07-05T13:57:00;1.65;;;0.70;;
71423;SDS011;59240;51.370;-0.486;2022-07-05T13:59:26;1.77;;;0.80;;
71423;SDS011;59240;51.370;-0.486;2022-07-05T14:01:53;2.63;;;1.10;;
71423;SDS011;59240;51.370;-0.486;2022-07-05T14:04:20;2.30;;;0.90;;
71423;SDS011;59240;51.370;-0.486;2022-07-05T14:06:49;1.95;;;1.02;;
71423;SDS011;59240;51.370;-0.486;2022-07-05T14:09:16;2.67;;;1.10;;
71423;SDS011;59240;51.370;-0.486;2022-07-05T14:11:43;2.95;;;0.93;;
71423;SDS011;59240;51.370;-0.486;2022-07-05T14:14:10;3.55;;;0.95;;
71423;SDS011;59240;51.370;-0.486;2022-07-05T14:16:39;2.58;;;0.82;;
71423;SDS011;59240;51.370;-0.486;2022-07-05T14:19:06;2.40;;;0.60;;
71423;SDS011;59240;51.370;-0.486;2022-07-05T14:21:33;1.25;;;0.80;;
71423;SDS011;59240;51.370;-0.486;2022-07-05T14:24:04;3.28;;;1.02;;
71423;SDS011;59240;51.370;-0.486;2022-07-05T14:26:31;3.33;;;0.80;;
71423;SDS011;59240;51.370;-0.486;2022-07-05T14:28:59;1.27;;;0.70;;
71423;SDS011;59240;51.370;-0.486;2022-07-05T14:31:27;0.93;;;0.60;;
71423;SDS011;59240;51.370;-0.486;2022-07-05T14:33:58;1.35;;;0.70;;
71423;SDS011;59240;51.370;-0.486;2022-07-05T14:36:24;2.05;;;0.55;;
71423;SDS011;59240;51.370;-0.486;2022-07-05T14:38:51;3.95;;;0.95;;
71423;SDS011;59240;51.370;-0.486;2022-07-05T14:41:18;3.05;;;0.80;;
71423;SDS011;59240;51.370;-0.486;2022-07-05T14:43:44;2.75;;;0.70;;
71423;SDS011;59240;51.370;-0.486;2022-07-05T14:46:11;2.97;;;1.00;;
71423;SDS011;59240;51.370;-0.486;2022-07-05T14:48:44;0.80;;;0.52;;
71423;SDS011;59240;51.370;-0.486;2022-07-05T14:51:11;2.30;;;0.88;;
71423;SDS011;59240;51.370;-0.486;2022-07-05T14:53:38;1.20;;;0.68;;
71423;SDS011;59240;51.370;-0.486;2022-07-05T14:56:08;1.70;;;0.70;;
71423;SDS011;59240;51.370;-0.486;2022-07-05T14:58:35;1.70;;;0.80;;
71423;SDS011;59240;51.370;-0.486;2022-07-05T15:01:02;1.35;;;0.65;;
71423;SDS011;59240;51.370;-0.486;2022-07-05T15:03:29;2.88;;;0.88;;
71423;SDS011;59240;51.370;-0.486;2022-07-05T15:05:55;1.33;;;0.80;;
71423;SDS011;59240;51.370;-0.486;2022-07-05T15:08:22;2.47;;;0.88;;
71423;SDS011;59240;51.370;-0.486;2022-07-05T15:10:51;1.65;;;0.93;;
71423;SDS011;59240;51.370;-0.486;2022-07-05T15:13:18;4.00;;;1.30;;
71423;SDS011;59240;51.370;-0.486;2022-07-05T15:15:46;1.15;;;0.73;;
71423;SDS011;59240;51.370;-0.486;2022-07-05T15:18:12;3.42;;;0.90;;
71423;SDS011;59240;51.370;-0.486;2022-07-05T15:20:39;2.28;;;0.85;;
71423;SDS011;59240;51.370;-0.486;2022-07-05T15:23:06;5.00;;;0.98;;